sensor_id;sensor_type;location;lat;lon;timestamp;temperature;humidity
1468;DHT22;727;48.892;9.544;2023-01-15T00:00:48;11.90;99.90
1468;DHT22;727;48.892;9.544;2023-01-15T00:03:15;11.90;99.90
1468;DHT22;727;48.892;9.544;2023-01-15T00:05:43;11.90;99.90
1468;DHT22;727;48.892;9.544;2023-01-15T00:08:10;11.90;99.90
1468;DHT22;727;48.892;9.544;2023-01-15T00:10:37;11.90;99.90
1468;DHT22;727;48.892;9.544;2023-01-15T00:13:03;11.90;99.90
1468;DHT22;727;48.892;9.544;2023-01-15T00:15:30;12.00;99.90
1468;DHT22;727;48.892;9.544;2023-01-15T00:17:57;12.00;99.90
1468;DHT22;727;48.892;9.544;2023-01-15T00:20:24;12.00;99.90
1468;DHT22;727;48.892;9.544;2023-01-15T00:22:52;12.00;99.90
1468;DHT22;727;48.892;9.544;2023-01-15T00:25:20;12.00;99.90
1468;DHT22;727;48.892;9.544;2023-01-15T00:28:05;12.00;99.90
1468;DHT22;727;48.892;9.544;2023-01-15T00:30:32;12.00;99.90
1468;DHT22;727;48.892;9.544;2023-01-15T00:32:59;12.00;99.90
1468;DHT22;727;48.892;9.544;2023-01-15T00:35:28;12.00;99.90
1468;DHT22;727;48.892;9.544;2023-01-15T00:37:56;11.90;99.90
1468;DHT22;727;48.892;9.544;2023-01-15T00:40:23;11.90;99.90
1468;DHT22;727;48.892;9.544;2023-01-15T00:42:49;11.90;99.90
1468;DHT22;727;48.892;9.544;2023-01-15T00:45:16;11.90;99.90
1468;DHT22;727;48.892;9.544;2023-01-15T00:47:44;11.90;99.90
1468;DHT22;727;48.892;9.544;2023-01-15T00:50:14;11.90;99.90
1468;DHT22;727;48.892;9.544;2023-01-15T00:52:41;11.90;99.90
1468;DHT22;727;48.892;9.544;2023-01-15T00:55:09;11.90;99.90
1468;DHT22;727;48.892;9.544;2023-01-15T00:57:36;11.90;99.90
1468;DHT22;727;48.892;9.544;2023-01-15T01:00:04;11.90;99.90
1468;DHT22;727;48.892;9.544;2023-01-15T01:02:31;11.90;99.90
1468;DHT22;727;48.892;9.544;2023-01-15T01:04:57;11.90;99.90
1468;DHT22;727;48.892;9.544;2023-01-15T01:07:24;11.90;99.90
1468;DHT22;727;48.892;9.544;2023-01-15T01:09:51;11.90;99.90
1468;DHT22;727;48.892;9.544;2023-01-15T01:12:19;11.90;99.90
1468;DHT22;727;48.892;9.544;2023-01-15T01:14:48;11.90;99.90
1468;DHT22;727;48.892;9.544;2023-01-15T01:17:14;11.90;99.90
1468;DHT22;727;48.892;9.544;2023-01-15T01:19:41;12.00;99.90
1468;DHT22;727;48.892;9.544;2023-01-15T01:22:08;12.00;99.90
1468;DHT22;727;48.892;9.544;2023-01-15T01:24:35;12.10;99.90
1468;DHT22;727;48.892;9.544;2023-01-15T01:27:02;12.10;99.90
1468;DHT22;727;48.892;9.544;2023-01-15T01:29:30;12.10;99.90
1468;DHT22;727;48.892;9.544;2023-01-15T01:31:56;12.20;99.90
1468;DHT22;727;48.892;9.544;2023-01-15T01:34:23;12.20;99.90
1468;DHT22;727;48.892;9.544;2023-01-15T01:36:50;12.30;99.90
1468;DHT22;727;48.892;9.544;2023-01-15T01:39:17;12.30;99.90
1468;DHT22;727;48.892;9.544;2023-01-15T01:41:46;12.30;99.90
1468;DHT22;727;48.892;9.544;2023-01-15T01:47:21;12.40;99.90
1468;DHT22;727;48.892;9.544;2023-01-15T01:49:51;12.40;99.90
1468;DHT22;727;48.892;9.544;2023-01-15T01:52:21;12.40;99.90
1468;DHT22;727;48.892;9.544;2023-01-15T01:54:49;12.40;99.90
1468;DHT22;727;48.892;9.544;2023-01-15T01:57:17;12.40;99.90
1468;DHT22;727;48.892;9.544;2023-01-15T01:59:46;12.40;99.90
1468;DHT22;727;48.892;9.544;2023-01-15T02:02:15;12.40;99.90
1468;DHT22;727;48.892;9.544;2023-01-15T02:04:43;12.40;99.90
1468;DHT22;727;48.892;9.544;2023-01-15T02:07:10;12.40;99.90
1468;DHT22;727;48.892;9.544;2023-01-15T02:09:38;12.40;99.90
1468;DHT22;727;48.892;9.544;2023-01-15T02:12:08;12.40;99.90
1468;DHT22;727;48.892;9.544;2023-01-15T02:14:41;12.30;99.90
1468;DHT22;727;48.892;9.544;2023-01-15T02:17:14;12.40;99.90
1468;DHT22;727;48.892;9.544;2023-01-15T02:19:55;12.40;99.90
1468;DHT22;727;48.892;9.544;2023-01-15T02:22:34;12.30;99.90
1468;DHT22;727;48.892;9.544;2023-01-15T02:25:08;12.40;99.90
1468;DHT22;727;48.892;9.544;2023-01-15T02:27:43;12.40;99.90
1468;DHT22;727;48.892;9.544;2023-01-15T02:30:17;12.40;99.90
1468;DHT22;727;48.892;9.544;2023-01-15T02:32:50;12.40;99.90
1468;DHT22;727;48.892;9.544;2023-01-15T02:35:20;12.50;99.90
1468;DHT22;727;48.892;9.544;2023-01-15T02:37:52;12.40;99.90
1468;DHT22;727;48.892;9.544;2023-01-15T02:40:21;12.50;99.90
1468;DHT22;727;48.892;9.544;2023-01-15T02:42:50;12.50;99.90
1468;DHT22;727;48.892;9.544;2023-01-15T02:45:22;12.50;99.90
1468;DHT22;727;48.892;9.544;2023-01-15T02:47:52;12.50;99.90
1468;DHT22;727;48.892;9.544;2023-01-15T02:50:25;12.50;99.90
1468;DHT22;727;48.892;9.544;2023-01-15T02:52:57;12.50;99.90
1468;DHT22;727;48.892;9.544;2023-01-15T02:55:27;12.40;99.90
1468;DHT22;727;48.892;9.544;2023-01-15T02:57:59;12.40;99.90
1468;DHT22;727;48.892;9.544;2023-01-15T03:00:28;12.40;99.90
1468;DHT22;727;48.892;9.544;2023-01-15T03:03:00;12.50;99.90
1468;DHT22;727;48.892;9.544;2023-01-15T03:05:34;12.50;99.90
1468;DHT22;727;48.892;9.544;2023-01-15T03:08:05;12.50;99.90
1468;DHT22;727;48.892;9.544;2023-01-15T03:10:38;12.50;99.90
1468;DHT22;727;48.892;9.544;2023-01-15T03:13:13;12.50;99.90
1468;DHT22;727;48.892;9.544;2023-01-15T03:15:46;12.40;99.90
1468;DHT22;727;48.892;9.544;2023-01-15T03:18:36;12.50;99.90
1468;DHT22;727;48.892;9.544;2023-01-15T03:21:09;12.50;99.90
1468;DHT22;727;48.892;9.544;2023-01-15T03:23:42;12.50;99.90
1468;DHT22;727;48.892;9.544;2023-01-15T03:26:11;12.40;99.90
1468;DHT22;727;48.892;9.544;2023-01-15T03:28:41;12.30;99.90
1468;DHT22;727;48.892;9.544;2023-01-15T03:31:09;12.30;99.90
1468;DHT22;727;48.892;9.544;2023-01-15T03:33:35;12.30;99.90
1468;DHT22;727;48.892;9.544;2023-01-15T03:36:03;12.20;99.90
1468;DHT22;727;48.892;9.544;2023-01-15T03:38:32;12.20;99.90
1468;DHT22;727;48.892;9.544;2023-01-15T03:41:08;12.20;99.90
1468;DHT22;727;48.892;9.544;2023-01-15T03:43:46;12.20;99.90
1468;DHT22;727;48.892;9.544;2023-01-15T03:46:26;12.20;99.90
1468;DHT22;727;48.892;9.544;2023-01-15T03:49:01;12.20;99.90
1468;DHT22;727;48.892;9.544;2023-01-15T03:51:33;12.20;99.90
1468;DHT22;727;48.892;9.544;2023-01-15T03:54:06;12.10;99.90
1468;DHT22;727;48.892;9.544;2023-01-15T03:56:39;12.10;99.90
1468;DHT22;727;48.892;9.544;2023-01-15T03:59:16;12.20;99.90
1468;DHT22;727;48.892;9.544;2023-01-15T04:01:44;12.10;99.90
1468;DHT22;727;48.892;9.544;2023-01-15T04:04:13;12.20;99.90
1468;DHT22;727;48.892;9.544;2023-01-15T04:06:41;12.20;99.90
1468;DHT22;727;48.892;9.544;2023-01-15T04:09:11;12.20;99.90
1468;DHT22;727;48.892;9.544;2023-01-15T04:11:38;12.20;99.90
1468;DHT22;727;48.892;9.544;2023-01-15T04:14:06;12.20;99.90
1468;DHT22;727;48.892;9.544;2023-01-15T04:16:34;12.20;99.90
1468;DHT22;727;48.892;9.544;2023-01-15T04:19:00;12.20;99.90
1468;DHT22;727;48.892;9.544;2023-01-15T04:21:27;12.20;99.90
1468;DHT22;727;48.892;9.544;2023-01-15T04:23:55;12.20;99.90
1468;DHT22;727;48.892;9.544;2023-01-15T04:26:22;12.20;99.90
1468;DHT22;727;48.892;9.544;2023-01-15T04:28:49;12.20;99.90
1468;DHT22;727;48.892;9.544;2023-01-15T04:31:16;12.10;99.90
1468;DHT22;727;48.892;9.544;2023-01-15T04:33:44;12.10;99.90
1468;DHT22;727;48.892;9.544;2023-01-15T04:36:11;12.10;99.90
1468;DHT22;727;48.892;9.544;2023-01-15T04:38:41;12.10;99.90
1468;DHT22;727;48.892;9.544;2023-01-15T04:41:08;12.20;99.90
1468;DHT22;727;48.892;9.544;2023-01-15T04:43:53;12.20;99.90
1468;DHT22;727;48.892;9.544;2023-01-15T04:46:32;12.20;99.90
1468;DHT22;727;48.892;9.544;2023-01-15T04:49:01;12.20;99.90
1468;DHT22;727;48.892;9.544;2023-01-15T04:51:27;12.20;99.90
1468;DHT22;727;48.892;9.544;2023-01-15T04:53:54;12.30;99.90
1468;DHT22;727;48.892;9.544;2023-01-15T04:56:21;12.20;99.90
1468;DHT22;727;48.892;9.544;2023-01-15T04:58:48;12.30;99.90
1468;DHT22;727;48.892;9.544;2023-01-15T05:01:16;12.30;99.90
1468;DHT22;727;48.892;9.544;2023-01-15T05:03:43;12.30;99.90
1468;DHT22;727;48.892;9.544;2023-01-15T05:06:11;12.30;99.90
1468;DHT22;727;48.892;9.544;2023-01-15T05:08:41;12.30;99.90
1468;DHT22;727;48.892;9.544;2023-01-15T05:11:07;12.30;99.90
1468;DHT22;727;48.892;9.544;2023-01-15T05:13:34;12.30;99.90
1468;DHT22;727;48.892;9.544;2023-01-15T05:16:12;12.30;99.90
1468;DHT22;727;48.892;9.544;2023-01-15T05:18:40;12.30;99.90
1468;DHT22;727;48.892;9.544;2023-01-15T05:21:14;12.20;99.90
1468;DHT22;727;48.892;9.544;2023-01-15T05:23:41;12.30;99.90
1468;DHT22;727;48.892;9.544;2023-01-15T05:26:08;12.20;99.90
1468;DHT22;727;48.892;9.544;2023-01-15T05:28:34;12.20;99.90
1468;DHT22;727;48.892;9.544;2023-01-15T05:31:05;12.10;99.90
1468;DHT22;727;48.892;9.544;2023-01-15T05:33:33;12.00;99.90
1468;DHT22;727;48.892;9.544;2023-01-15T05:36:01;11.90;99.90
1468;DHT22;727;48.892;9.544;2023-01-15T05:38:29;11.70;99.90
1468;DHT22;727;48.892;9.544;2023-01-15T05:40:56;11.50;99.90
1468;DHT22;727;48.892;9.544;2023-01-15T05:43:23;11.10;99.90
1468;DHT22;727;48.892;9.544;2023-01-15T05:45:50;10.70;99.90
1468;DHT22;727;48.892;9.544;2023-01-15T05:48:17;10.50;99.90
1468;DHT22;727;48.892;9.544;2023-01-15T05:50:43;10.30;99.90
1468;DHT22;727;48.892;9.544;2023-01-15T05:53:10;10.20;99.90
1468;DHT22;727;48.892;9.544;2023-01-15T05:55:38;10.00;99.90
1468;DHT22;727;48.892;9.544;2023-01-15T05:58:05;9.90;99.90
1468;DHT22;727;48.892;9.544;2023-01-15T06:00:32;9.80;99.90
1468;DHT22;727;48.892;9.544;2023-01-15T06:02:58;9.80;99.90
1468;DHT22;727;48.892;9.544;2023-01-15T06:05:25;9.60;99.90
1468;DHT22;727;48.892;9.544;2023-01-15T06:07:52;9.60;99.90
1468;DHT22;727;48.892;9.544;2023-01-15T06:10:19;9.50;99.90
1468;DHT22;727;48.892;9.544;2023-01-15T06:12:47;9.40;99.90
1468;DHT22;727;48.892;9.544;2023-01-15T06:15:14;9.40;99.90
1468;DHT22;727;48.892;9.544;2023-01-15T06:17:40;9.30;99.90
1468;DHT22;727;48.892;9.544;2023-01-15T06:20:09;9.20;99.90
1468;DHT22;727;48.892;9.544;2023-01-15T06:22:36;9.20;99.90
1468;DHT22;727;48.892;9.544;2023-01-15T06:25:03;9.10;99.90
1468;DHT22;727;48.892;9.544;2023-01-15T06:27:30;9.00;99.90
1468;DHT22;727;48.892;9.544;2023-01-15T06:29:58;9.00;99.90
1468;DHT22;727;48.892;9.544;2023-01-15T06:32:25;8.90;99.90
1468;DHT22;727;48.892;9.544;2023-01-15T06:34:52;8.80;99.90
1468;DHT22;727;48.892;9.544;2023-01-15T06:37:19;8.80;99.90
1468;DHT22;727;48.892;9.544;2023-01-15T06:39:45;8.80;99.90
1468;DHT22;727;48.892;9.544;2023-01-15T06:42:12;8.80;99.90
1468;DHT22;727;48.892;9.544;2023-01-15T06:44:56;8.70;99.90
1468;DHT22;727;48.892;9.544;2023-01-15T06:47:42;8.70;99.90
1468;DHT22;727;48.892;9.544;2023-01-15T06:50:12;8.60;99.90
1468;DHT22;727;48.892;9.544;2023-01-15T06:52:40;8.50;99.90
1468;DHT22;727;48.892;9.544;2023-01-15T06:55:07;8.40;99.90
1468;DHT22;727;48.892;9.544;2023-01-15T06:57:37;8.40;99.90
1468;DHT22;727;48.892;9.544;2023-01-15T07:00:04;8.30;99.90
1468;DHT22;727;48.892;9.544;2023-01-15T07:02:31;8.20;99.90
1468;DHT22;727;48.892;9.544;2023-01-15T07:05:00;8.30;99.90
1468;DHT22;727;48.892;9.544;2023-01-15T07:07:27;8.20;99.90
1468;DHT22;727;48.892;9.544;2023-01-15T07:09:54;8.10;99.90
1468;DHT22;727;48.892;9.544;2023-01-15T07:12:21;8.10;99.90
1468;DHT22;727;48.892;9.544;2023-01-15T07:14:48;8.00;99.90
1468;DHT22;727;48.892;9.544;2023-01-15T07:17:15;8.00;99.90
1468;DHT22;727;48.892;9.544;2023-01-15T07:19:42;7.90;99.90
1468;DHT22;727;48.892;9.544;2023-01-15T07:22:11;7.90;99.90
1468;DHT22;727;48.892;9.544;2023-01-15T07:24:37;7.90;99.90
1468;DHT22;727;48.892;9.544;2023-01-15T07:27:05;7.80;99.90
1468;DHT22;727;48.892;9.544;2023-01-15T07:29:31;7.80;99.90
1468;DHT22;727;48.892;9.544;2023-01-15T07:31:58;7.70;99.90
1468;DHT22;727;48.892;9.544;2023-01-15T07:34:25;7.60;99.90
1468;DHT22;727;48.892;9.544;2023-01-15T07:36:52;7.50;99.90
1468;DHT22;727;48.892;9.544;2023-01-15T07:39:20;7.40;99.90
1468;DHT22;727;48.892;9.544;2023-01-15T07:41:47;7.30;99.90
1468;DHT22;727;48.892;9.544;2023-01-15T07:44:31;7.30;99.90
1468;DHT22;727;48.892;9.544;2023-01-15T07:47:18;7.20;99.90
1468;DHT22;727;48.892;9.544;2023-01-15T07:50:05;7.20;99.90
1468;DHT22;727;48.892;9.544;2023-01-15T07:52:32;7.10;99.90
1468;DHT22;727;48.892;9.544;2023-01-15T07:55:00;7.10;99.90
1468;DHT22;727;48.892;9.544;2023-01-15T07:57:28;7.10;99.90
1468;DHT22;727;48.892;9.544;2023-01-15T07:59:55;7.10;99.90
1468;DHT22;727;48.892;9.544;2023-01-15T08:02:22;7.10;99.90
1468;DHT22;727;48.892;9.544;2023-01-15T08:04:49;7.10;99.90
1468;DHT22;727;48.892;9.544;2023-01-15T08:07:15;7.00;99.90
1468;DHT22;727;48.892;9.544;2023-01-15T08:09:42;7.00;99.90
1468;DHT22;727;48.892;9.544;2023-01-15T08:12:11;7.00;99.90
1468;DHT22;727;48.892;9.544;2023-01-15T08:14:56;7.00;99.90
1468;DHT22;727;48.892;9.544;2023-01-15T08:17:42;7.10;99.90
1468;DHT22;727;48.892;9.544;2023-01-15T08:20:12;7.00;99.90
1468;DHT22;727;48.892;9.544;2023-01-15T08:22:40;7.00;99.90
1468;DHT22;727;48.892;9.544;2023-01-15T08:25:10;6.90;99.90
1468;DHT22;727;48.892;9.544;2023-01-15T08:27:38;6.90;99.90
1468;DHT22;727;48.892;9.544;2023-01-15T08:30:08;6.90;99.90
1468;DHT22;727;48.892;9.544;2023-01-15T08:32:35;6.90;99.90
1468;DHT22;727;48.892;9.544;2023-01-15T08:35:02;6.90;99.90
1468;DHT22;727;48.892;9.544;2023-01-15T08:37:29;6.90;99.90
1468;DHT22;727;48.892;9.544;2023-01-15T08:39:56;6.90;99.90
1468;DHT22;727;48.892;9.544;2023-01-15T08:42:23;6.90;99.90
1468;DHT22;727;48.892;9.544;2023-01-15T08:44:51;6.90;99.90
1468;DHT22;727;48.892;9.544;2023-01-15T08:47:18;6.90;99.90
1468;DHT22;727;48.892;9.544;2023-01-15T08:49:45;6.90;99.90
1468;DHT22;727;48.892;9.544;2023-01-15T08:52:15;6.90;99.90
1468;DHT22;727;48.892;9.544;2023-01-15T08:54:42;6.90;99.90
1468;DHT22;727;48.892;9.544;2023-01-15T08:57:09;6.80;99.90
1468;DHT22;727;48.892;9.544;2023-01-15T08:59:36;6.80;99.90
1468;DHT22;727;48.892;9.544;2023-01-15T09:02:05;6.80;99.90
1468;DHT22;727;48.892;9.544;2023-01-15T09:04:31;6.90;99.90
1468;DHT22;727;48.892;9.544;2023-01-15T09:06:58;6.90;99.90
1468;DHT22;727;48.892;9.544;2023-01-15T09:09:25;6.80;99.90
1468;DHT22;727;48.892;9.544;2023-01-15T09:11:52;6.80;99.90
1468;DHT22;727;48.892;9.544;2023-01-15T09:14:19;6.80;99.90
1468;DHT22;727;48.892;9.544;2023-01-15T09:16:46;6.80;99.90
1468;DHT22;727;48.892;9.544;2023-01-15T09:19:15;6.80;99.90
1468;DHT22;727;48.892;9.544;2023-01-15T09:21:41;6.80;99.90
1468;DHT22;727;48.892;9.544;2023-01-15T09:24:08;6.80;99.90
1468;DHT22;727;48.892;9.544;2023-01-15T09:26:36;6.70;99.90
1468;DHT22;727;48.892;9.544;2023-01-15T09:29:05;6.70;99.90
1468;DHT22;727;48.892;9.544;2023-01-15T09:31:33;6.70;99.90
1468;DHT22;727;48.892;9.544;2023-01-15T09:34:00;6.70;99.90
1468;DHT22;727;48.892;9.544;2023-01-15T09:36:29;6.60;99.90
1468;DHT22;727;48.892;9.544;2023-01-15T09:38:57;6.60;99.90
1468;DHT22;727;48.892;9.544;2023-01-15T09:41:28;6.60;99.90
1468;DHT22;727;48.892;9.544;2023-01-15T09:44:27;6.60;99.90
1468;DHT22;727;48.892;9.544;2023-01-15T09:47:03;6.50;99.90
1468;DHT22;727;48.892;9.544;2023-01-15T09:49:40;6.50;99.90
1468;DHT22;727;48.892;9.544;2023-01-15T09:52:21;6.50;99.90
1468;DHT22;727;48.892;9.544;2023-01-15T09:54:56;6.50;99.90
1468;DHT22;727;48.892;9.544;2023-01-15T09:57:27;6.50;99.90
1468;DHT22;727;48.892;9.544;2023-01-15T09:59:55;6.50;99.90
1468;DHT22;727;48.892;9.544;2023-01-15T10:02:29;6.50;99.90
1468;DHT22;727;48.892;9.544;2023-01-15T10:04:58;6.50;99.90
1468;DHT22;727;48.892;9.544;2023-01-15T10:07:33;6.50;99.90
1468;DHT22;727;48.892;9.544;2023-01-15T10:10:04;6.50;99.90
1468;DHT22;727;48.892;9.544;2023-01-15T10:12:35;6.50;99.90
1468;DHT22;727;48.892;9.544;2023-01-15T10:15:13;6.50;99.90
1468;DHT22;727;48.892;9.544;2023-01-15T10:17:43;6.50;99.90
1468;DHT22;727;48.892;9.544;2023-01-15T10:20:16;6.50;99.90
1468;DHT22;727;48.892;9.544;2023-01-15T10:23:07;6.40;99.90
1468;DHT22;727;48.892;9.544;2023-01-15T10:25:44;6.50;99.90
1468;DHT22;727;48.892;9.544;2023-01-15T10:28:18;6.50;99.90
1468;DHT22;727;48.892;9.544;2023-01-15T10:30:47;6.50;99.90
1468;DHT22;727;48.892;9.544;2023-01-15T10:33:40;6.60;99.90
1468;DHT22;727;48.892;9.544;2023-01-15T10:36:15;6.60;99.90
1468;DHT22;727;48.892;9.544;2023-01-15T10:38:52;6.50;99.90
1468;DHT22;727;48.892;9.544;2023-01-15T10:44:16;6.40;99.90
1468;DHT22;727;48.892;9.544;2023-01-15T10:46:51;6.40;99.90
1468;DHT22;727;48.892;9.544;2023-01-15T10:49:19;6.40;99.90
1468;DHT22;727;48.892;9.544;2023-01-15T10:51:48;6.40;99.90
1468;DHT22;727;48.892;9.544;2023-01-15T10:54:23;6.30;99.90
1468;DHT22;727;48.892;9.544;2023-01-15T10:56:56;6.20;99.90
1468;DHT22;727;48.892;9.544;2023-01-15T10:59:35;6.10;99.90
1468;DHT22;727;48.892;9.544;2023-01-15T11:02:18;6.00;99.90
1468;DHT22;727;48.892;9.544;2023-01-15T11:04:47;6.00;99.90
1468;DHT22;727;48.892;9.544;2023-01-15T11:07:14;6.00;99.90
1468;DHT22;727;48.892;9.544;2023-01-15T11:09:42;5.90;99.90
1468;DHT22;727;48.892;9.544;2023-01-15T11:12:19;5.80;99.90
1468;DHT22;727;48.892;9.544;2023-01-15T11:15:13;5.80;99.90
1468;DHT22;727;48.892;9.544;2023-01-15T11:18:01;5.70;99.90
1468;DHT22;727;48.892;9.544;2023-01-15T11:20:47;5.70;99.90
1468;DHT22;727;48.892;9.544;2023-01-15T11:23:16;5.70;99.90
1468;DHT22;727;48.892;9.544;2023-01-15T11:25:49;5.70;99.90
1468;DHT22;727;48.892;9.544;2023-01-15T11:28:17;5.70;99.90
1468;DHT22;727;48.892;9.544;2023-01-15T11:30:55;5.60;99.90
1468;DHT22;727;48.892;9.544;2023-01-15T11:33:23;5.60;99.90
1468;DHT22;727;48.892;9.544;2023-01-15T11:35:52;5.60;99.90
1468;DHT22;727;48.892;9.544;2023-01-15T11:38:23;5.60;99.90
1468;DHT22;727;48.892;9.544;2023-01-15T11:40:53;5.50;99.90
1468;DHT22;727;48.892;9.544;2023-01-15T11:43:23;5.50;99.90
1468;DHT22;727;48.892;9.544;2023-01-15T11:46:22;5.50;99.90
1468;DHT22;727;48.892;9.544;2023-01-15T11:49:09;5.50;99.90
1468;DHT22;727;48.892;9.544;2023-01-15T11:51:55;5.40;99.90
1468;DHT22;727;48.892;9.544;2023-01-15T11:54:24;5.30;99.90
1468;DHT22;727;48.892;9.544;2023-01-15T11:56:53;5.30;99.90
1468;DHT22;727;48.892;9.544;2023-01-15T11:59:21;5.20;99.90
1468;DHT22;727;48.892;9.544;2023-01-15T12:01:51;5.20;99.90
1468;DHT22;727;48.892;9.544;2023-01-15T12:04:28;5.20;99.90
1468;DHT22;727;48.892;9.544;2023-01-15T12:06:56;5.20;99.90
1468;DHT22;727;48.892;9.544;2023-01-15T12:09:35;5.30;99.90
1468;DHT22;727;48.892;9.544;2023-01-15T12:12:15;5.30;99.90
1468;DHT22;727;48.892;9.544;2023-01-15T12:14:52;5.30;99.90
1468;DHT22;727;48.892;9.544;2023-01-15T12:17:30;5.30;99.90
1468;DHT22;727;48.892;9.544;2023-01-15T12:20:06;5.30;99.90
1468;DHT22;727;48.892;9.544;2023-01-15T12:22:53;5.30;99.90
1468;DHT22;727;48.892;9.544;2023-01-15T12:25:32;5.30;99.90
1468;DHT22;727;48.892;9.544;2023-01-15T12:28:07;5.30;99.90
1468;DHT22;727;48.892;9.544;2023-01-15T12:30:43;5.20;99.90
1468;DHT22;727;48.892;9.544;2023-01-15T12:33:18;5.20;99.90
1468;DHT22;727;48.892;9.544;2023-01-15T12:35:51;5.20;99.90
1468;DHT22;727;48.892;9.544;2023-01-15T12:38:29;5.20;99.90
1468;DHT22;727;48.892;9.544;2023-01-15T12:41:06;5.30;99.90
1468;DHT22;727;48.892;9.544;2023-01-15T12:43:35;5.20;99.90
1468;DHT22;727;48.892;9.544;2023-01-15T12:46:24;5.20;99.90
1468;DHT22;727;48.892;9.544;2023-01-15T12:48:57;5.20;99.90
1468;DHT22;727;48.892;9.544;2023-01-15T12:51:33;5.20;99.90
1468;DHT22;727;48.892;9.544;2023-01-15T12:54:05;5.20;99.90
1468;DHT22;727;48.892;9.544;2023-01-15T12:56:44;5.20;99.90
1468;DHT22;727;48.892;9.544;2023-01-15T12:59:21;5.20;99.90
1468;DHT22;727;48.892;9.544;2023-01-15T13:01:53;5.30;99.90
1468;DHT22;727;48.892;9.544;2023-01-15T13:04:26;5.30;99.90
1468;DHT22;727;48.892;9.544;2023-01-15T13:06:59;5.30;99.90
1468;DHT22;727;48.892;9.544;2023-01-15T13:09:34;5.30;99.90
1468;DHT22;727;48.892;9.544;2023-01-15T13:12:02;5.40;99.90
1468;DHT22;727;48.892;9.544;2023-01-15T13:14:35;5.40;99.90
1468;DHT22;727;48.892;9.544;2023-01-15T13:17:06;5.40;99.90
1468;DHT22;727;48.892;9.544;2023-01-15T13:19:44;5.40;99.90
1468;DHT22;727;48.892;9.544;2023-01-15T13:22:18;5.50;99.90
1468;DHT22;727;48.892;9.544;2023-01-15T13:27:39;5.60;99.90
1468;DHT22;727;48.892;9.544;2023-01-15T13:30:25;5.60;99.90
1468;DHT22;727;48.892;9.544;2023-01-15T13:32:59;5.60;99.90
1468;DHT22;727;48.892;9.544;2023-01-15T13:35:33;5.70;99.90
1468;DHT22;727;48.892;9.544;2023-01-15T13:38:03;5.70;99.90
1468;DHT22;727;48.892;9.544;2023-01-15T13:40:34;5.80;99.90
1468;DHT22;727;48.892;9.544;2023-01-15T13:43:04;5.80;99.90
1468;DHT22;727;48.892;9.544;2023-01-15T13:45:35;5.80;99.90
1468;DHT22;727;48.892;9.544;2023-01-15T13:48:06;5.80;99.90
1468;DHT22;727;48.892;9.544;2023-01-15T13:50:35;5.80;99.90
1468;DHT22;727;48.892;9.544;2023-01-15T13:53:12;5.90;99.90
1468;DHT22;727;48.892;9.544;2023-01-15T13:55:48;5.90;99.90
1468;DHT22;727;48.892;9.544;2023-01-15T13:58:21;5.90;99.90
1468;DHT22;727;48.892;9.544;2023-01-15T14:01:00;5.90;99.90
1468;DHT22;727;48.892;9.544;2023-01-15T14:03:28;5.90;99.90
1468;DHT22;727;48.892;9.544;2023-01-15T14:05:56;6.00;99.90
1468;DHT22;727;48.892;9.544;2023-01-15T14:08:27;6.00;99.90
1468;DHT22;727;48.892;9.544;2023-01-15T14:10:54;6.00;99.90
1468;DHT22;727;48.892;9.544;2023-01-15T14:13:44;6.00;99.90
1468;DHT22;727;48.892;9.544;2023-01-15T14:16:19;6.00;99.90
1468;DHT22;727;48.892;9.544;2023-01-15T14:19:10;5.90;99.90
1468;DHT22;727;48.892;9.544;2023-01-15T14:21:47;6.00;99.90
1468;DHT22;727;48.892;9.544;2023-01-15T14:24:38;6.00;99.90
1468;DHT22;727;48.892;9.544;2023-01-15T14:27:14;6.20;99.90
1468;DHT22;727;48.892;9.544;2023-01-15T14:30:12;6.30;99.90
1468;DHT22;727;48.892;9.544;2023-01-15T14:33:02;6.40;99.90
1468;DHT22;727;48.892;9.544;2023-01-15T14:35:34;6.50;99.90
1468;DHT22;727;48.892;9.544;2023-01-15T14:38:04;6.50;99.90
1468;DHT22;727;48.892;9.544;2023-01-15T14:40:33;6.50;99.90
1468;DHT22;727;48.892;9.544;2023-01-15T14:43:06;6.40;99.90
1468;DHT22;727;48.892;9.544;2023-01-15T14:45:35;6.30;99.90
1468;DHT22;727;48.892;9.544;2023-01-15T14:48:16;6.30;99.90
1468;DHT22;727;48.892;9.544;2023-01-15T14:50:44;6.30;99.90
1468;DHT22;727;48.892;9.544;2023-01-15T14:53:30;6.20;99.90
1468;DHT22;727;48.892;9.544;2023-01-15T14:56:03;6.30;99.90
1468;DHT22;727;48.892;9.544;2023-01-15T14:58:44;6.30;99.90
1468;DHT22;727;48.892;9.544;2023-01-15T15:01:27;6.30;99.90
1468;DHT22;727;48.892;9.544;2023-01-15T15:03:59;6.40;99.90
1468;DHT22;727;48.892;9.544;2023-01-15T15:06:29;6.50;99.90
1468;DHT22;727;48.892;9.544;2023-01-15T15:08:59;6.40;99.90
1468;DHT22;727;48.892;9.544;2023-01-15T15:11:34;6.30;99.90
1468;DHT22;727;48.892;9.544;2023-01-15T15:14:19;6.20;99.90
1468;DHT22;727;48.892;9.544;2023-01-15T15:16:49;6.10;99.90
1468;DHT22;727;48.892;9.544;2023-01-15T15:19:24;6.10;99.90
1468;DHT22;727;48.892;9.544;2023-01-15T15:21:54;6.00;99.90
1468;DHT22;727;48.892;9.544;2023-01-15T15:24:24;6.10;99.90
1468;DHT22;727;48.892;9.544;2023-01-15T15:26:51;6.10;99.90
1468;DHT22;727;48.892;9.544;2023-01-15T15:29:19;6.10;99.90
1468;DHT22;727;48.892;9.544;2023-01-15T15:31:48;6.10;99.90
1468;DHT22;727;48.892;9.544;2023-01-15T15:34:25;6.10;99.90
1468;DHT22;727;48.892;9.544;2023-01-15T15:36:54;6.10;99.90
1468;DHT22;727;48.892;9.544;2023-01-15T15:39:26;6.00;99.90
1468;DHT22;727;48.892;9.544;2023-01-15T15:41:56;6.10;99.90
1468;DHT22;727;48.892;9.544;2023-01-15T15:44:47;6.00;99.90
1468;DHT22;727;48.892;9.544;2023-01-15T15:47:36;5.90;99.90
1468;DHT22;727;48.892;9.544;2023-01-15T15:50:24;5.90;99.90
1468;DHT22;727;48.892;9.544;2023-01-15T15:52:52;5.90;99.90
1468;DHT22;727;48.892;9.544;2023-01-15T15:55:20;5.90;99.90
1468;DHT22;727;48.892;9.544;2023-01-15T15:57:51;6.00;99.90
1468;DHT22;727;48.892;9.544;2023-01-15T16:00:24;5.90;99.90
1468;DHT22;727;48.892;9.544;2023-01-15T16:02:53;6.00;99.90
1468;DHT22;727;48.892;9.544;2023-01-15T16:05:23;5.90;99.90
1468;DHT22;727;48.892;9.544;2023-01-15T16:07:52;5.90;99.90
1468;DHT22;727;48.892;9.544;2023-01-15T16:10:23;5.80;99.90
1468;DHT22;727;48.892;9.544;2023-01-15T16:12:52;5.70;99.90
1468;DHT22;727;48.892;9.544;2023-01-15T16:15:22;5.60;99.90
1468;DHT22;727;48.892;9.544;2023-01-15T16:17:51;5.50;99.90
1468;DHT22;727;48.892;9.544;2023-01-15T16:20:19;5.50;99.90
1468;DHT22;727;48.892;9.544;2023-01-15T16:22:53;5.30;99.90
1468;DHT22;727;48.892;9.544;2023-01-15T16:25:22;5.20;99.90
1468;DHT22;727;48.892;9.544;2023-01-15T16:27:50;5.20;99.90
1468;DHT22;727;48.892;9.544;2023-01-15T16:30:17;5.20;99.90
1468;DHT22;727;48.892;9.544;2023-01-15T16:32:44;5.10;99.90
1468;DHT22;727;48.892;9.544;2023-01-15T16:35:18;5.00;99.90
1468;DHT22;727;48.892;9.544;2023-01-15T16:37:48;5.00;99.90
1468;DHT22;727;48.892;9.544;2023-01-15T16:40:22;5.00;99.90
1468;DHT22;727;48.892;9.544;2023-01-15T16:43:00;4.90;99.90
1468;DHT22;727;48.892;9.544;2023-01-15T16:45:27;5.00;99.90
1468;DHT22;727;48.892;9.544;2023-01-15T16:48:09;5.00;99.90
1468;DHT22;727;48.892;9.544;2023-01-15T16:50:37;5.00;99.90
1468;DHT22;727;48.892;9.544;2023-01-15T16:53:14;4.90;99.90
1468;DHT22;727;48.892;9.544;2023-01-15T16:55:53;5.00;99.90
1468;DHT22;727;48.892;9.544;2023-01-15T16:58:31;5.00;99.90
1468;DHT22;727;48.892;9.544;2023-01-15T17:00:59;4.90;99.90
1468;DHT22;727;48.892;9.544;2023-01-15T17:03:27;5.00;99.90
1468;DHT22;727;48.892;9.544;2023-01-15T17:05:57;4.90;99.90